Time;durP1;ratioP1;P1;durP2;ratioP2;P2;SDS_P1;SDS_P2;PMS_P1;PMS_P2;Temp;Humidity;BMP_temperature;BMP_pressure;BME280_temperature;BME280_humidity;BME280_pressure;Samples;Min_cycle;Max_cycle;Signal;HPM_P1;HPM_P2
2022/09/07 00:01:17;;;;;;;0.10;0.10;;;;;;;18.10;100.00;100409.47;4834683;29;20659;-87
2022/09/07 00:03:46;;;;;;;0.10;0.10;;;;;;;18.11;100.00;100412.13;4839236;29;20218;-83
2022/09/07 00:06:14;;;;;;;0.10;0.10;;;;;;;18.07;100.00;100402.41;4837127;29;20214;-81
2022/09/07 00:08:43;;;;;;;0.10;0.10;;;;;;;18.14;100.00;100393.31;4839882;29;20210;-80
2022/09/07 00:11:14;;;;;;;0.30;0.30;;;18.10;99.90;;;18.17;100.00;100390.56;4837430;29;20320;-80
2022/09/07 00:13:45;;;;;;;0.25;0.25;;;18.10;99.90;;;18.20;100.00;100397.66;4845135;29;20232;-79
2022/09/07 00:16:21;;;;;;;0.10;0.10;;;18.00;99.90;;;18.19;100.00;100390.53;4838478;29;20221;-80
2022/09/07 00:18:49;;;;;;;0.10;0.10;;;;;;;18.23;100.00;100369.06;4837749;29;20220;-80
2022/09/07 00:21:18;;;;;;;0.10;0.10;;;;;;;18.29;100.00;100357.31;4836082;29;20202;-82
2022/09/07 00:23:48;;;;;;;0.10;0.10;;;18.40;99.90;;;18.31;100.00;100359.97;4810297;29;20202;-80
2022/09/07 00:26:25;;;;;;;0.00;0.00;;;18.30;99.90;;;18.28;100.00;100368.06;4842579;29;20206;-81
2022/09/07 00:28:58;;;;;;;0.10;0.10;;;18.20;99.90;;;18.19;100.00;100385.19;4848063;29;20223;-80
2022/09/07 00:31:29;;;;;;;0.00;0.00;;;18.10;99.90;;;18.15;100.00;100389.72;4834640;29;20217;-80
2022/09/07 00:34:01;;;;;;;0.00;0.00;;;18.10;99.90;;;18.08;100.00;100398.81;4843617;29;20253;-85
2022/09/07 00:36:29;;;;;;;0.10;0.10;;;;;;;18.02;100.00;100419.47;4842494;29;20216;-80
2022/09/07 00:38:58;;;;;;;0.00;0.00;;;;;;;17.91;100.00;100428.59;4850008;29;20210;-81
2022/09/07 00:41:26;;;;;;;0.10;0.10;;;;;;;17.88;100.00;100435.81;4836749;29;20214;-80
2022/09/07 00:43:58;;;;;;;0.10;0.10;;;17.80;99.90;;;17.88;100.00;100427.78;4839605;29;20238;-81
2022/09/07 00:46:33;;;;;;;0.10;0.10;;;17.80;99.90;;;17.89;100.00;100427.75;4837655;29;20217;-80
2022/09/07 00:49:15;;;;;;;0.10;0.10;;;17.80;99.90;;;17.93;100.00;100433.94;4839554;29;20201;-81
2022/09/07 00:51:58;;;;;;;0.10;0.10;;;17.80;99.90;;;17.96;100.00;100438.34;4830420;29;20296;-80
2022/09/07 00:54:41;;;;;;;0.10;0.10;;;17.90;99.90;;;17.97;100.00;100437.41;4838680;29;20245;-80
2022/09/07 00:57:10;;;;;;;0.00;0.00;;;;;;;17.97;100.00;100437.41;4822930;29;20206;-81
2022/09/07 00:59:47;;;;;;;0.00;0.00;;;17.90;99.90;;;17.88;100.00;100435.81;4782608;29;20210;-80
2022/09/07 01:02:16;;;;;;;0.08;0.08;;;;;;;17.90;100.00;100444.69;4849857;29;20233;-80
2022/09/07 01:04:51;;;;;;;0.10;0.10;;;17.80;99.90;;;17.96;100.00;100476.69;4826928;29;20221;-82
2022/09/07 01:07:19;;;;;;;0.00;0.00;;;;;;;17.85;100.00;100492.94;4841592;29;20214;-80
2022/09/07 01:09:49;;;;;;;0.10;0.10;;;;;;;17.85;100.00;100484.03;4839770;29;20211;-80
2022/09/07 01:12:18;;;;;;;0.10;0.10;;;;;;;17.90;100.00;100482.16;4821486;29;20237;-82
2022/09/07 01:14:51;;;;;;;0.10;0.10;;;17.80;99.90;;;17.82;100.00;100473.41;4840952;29;20249;-81
2022/09/07 01:18:01;;;;;;;0.00;0.00;;;17.80;99.90;;;17.88;100.00;100502.69;4830123;29;20216;-83
2022/09/07 01:21:31;;;;;;;0.00;0.00;;;17.80;99.90;;;17.92;100.00;100533.84;4853223;29;20220;-80
2022/09/07 01:24:37;;;;;;;0.00;0.00;;;17.80;99.90;;;17.96;100.00;100538.22;4815784;29;20210;-80
2022/09/07 01:27:35;;;;;;;0.10;0.10;;;17.80;99.90;;;18.00;100.00;100531.00;4837743;29;20678;-81
2022/09/07 01:30:13;;;;;;;0.10;0.10;;;17.80;99.90;;;18.02;100.00;100529.19;4797172;29;20222;-80
2022/09/07 01:33:37;;;;;;;0.10;0.10;;;17.90;99.90;;;18.05;100.00;100540.72;4810177;29;20233;-81
2022/09/07 01:36:19;;;;;;;0.10;0.10;;;17.90;99.90;;;18.02;100.00;100547.91;4839550;29;20240;-81
2022/09/07 01:38:58;;;;;;;0.10;0.10;;;17.80;99.90;;;17.90;100.00;100555.28;4843250;29;20221;-80
2022/09/07 01:41:57;;;;;;;0.32;0.32;;;17.70;99.90;;;17.90;100.00;100562.41;4819346;29;20221;-81
2022/09/07 01:44:35;;;;;;;0.10;0.10;;;17.80;99.90;;;18.04;100.00;100571.06;4838712;29;20229;-81
2022/09/07 01:47:06;;;;;;;0.10;0.10;;;;;;;18.31;100.00;100574.13;4841963;29;20236;-80
2022/09/07 01:49:41;;;;;;;0.15;0.15;;;18.00;99.90;;;18.49;100.00;100558.56;4842103;29;20203;-81
2022/09/07 01:52:26;;;;;;;0.00;0.00;;;18.10;99.90;;;18.68;100.00;100528.72;4809578;29;20244;-81
2022/09/07 01:55:14;;;;;;;0.00;0.00;;;18.30;99.90;;;18.75;100.00;100503.56;4838329;29;20245;-81
2022/09/07 01:57:51;;;;;;;0.10;0.10;;;18.40;99.90;;;18.68;100.00;100496.59;4838801;29;20525;-80
2022/09/07 02:00:20;;;;;;;0.00;0.00;;;18.50;99.90;;;18.61;100.00;100497.59;4814791;29;20209;-88
2022/09/07 02:03:22;;;;;;;0.10;0.10;;;18.50;99.90;;;18.49;100.00;100490.72;4845744;29;20243;-83
2022/09/07 02:06:00;;;;;;;0.10;0.10;;;18.30;99.90;;;18.26;100.00;100488.56;4833602;29;20635;-84
2022/09/07 02:09:05;;;;;;;0.10;0.10;;;18.20;99.90;;;18.19;100.00;100509.19;4824124;29;20221;-83
2022/09/07 02:11:41;;;;;;;0.10;0.10;;;18.10;99.90;;;18.17;100.00;100532.44;4806687;29;20220;-83
2022/09/07 02:14:47;;;;;;;0.10;0.10;;;18.10;99.90;;;18.08;100.00;100534.41;4831658;29;20596;-84
2022/09/07 02:17:33;;;;;;;0.10;0.10;;;18.00;99.90;;;18.03;100.00;100542.53;4787372;29;20219;-81
2022/09/07 02:20:16;;;;;;;0.05;0.05;;;18.00;99.90;;;18.04;100.00;100543.41;4808011;29;20210;-81
2022/09/07 02:22:53;;;;;;;0.10;0.10;;;17.90;99.90;;;18.00;100.00;100550.63;4840095;29;20238;-81
2022/09/07 02:25:27;;;;;;;0.03;0.03;;;18.00;99.90;;;17.98;100.00;100543.53;4810328;29;20209;-81
2022/09/07 02:28:08;;;;;;;0.20;0.20;;;18.00;99.90;;;17.97;100.00;100548.00;4827220;29;20213;-83
2022/09/07 02:30:37;;;;;;;0.10;0.10;;;;;;;17.96;100.00;100554.28;4844938;29;20217;-84
2022/09/07 02:33:05;;;;;;;0.03;0.03;;;;;;;18.01;100.00;100554.19;4801711;29;20632;-82
2022/09/07 02:35:34;;;;;;;0.00;0.00;;;;;;;17.96;100.00;100551.59;4819287;29;20242;-82
2022/09/07 02:38:05;;;;;;;0.00;0.00;;;18.00;99.90;;;17.99;100.00;100561.34;4850551;29;20210;-82
2022/09/07 02:40:33;;;;;;;0.30;0.30;;;;;;;18.04;100.00;100580.88;4836288;29;20213;-82
2022/09/07 02:43:05;;;;;;;0.10;0.10;;;18.00;99.90;;;18.04;100.00;100584.44;4842531;29;20237;-81
2022/09/07 02:46:11;;;;;;;0.30;0.30;;;18.00;99.90;;;18.05;100.00;100599.59;4821765;29;20281;-81
2022/09/07 02:49:00;;;;;;;0.00;0.00;;;18.00;99.90;;;17.99;100.00;100607.72;4844315;29;20225;-81
2022/09/07 02:51:45;;;;;;;0.05;0.05;;;;;;;17.96;100.00;100607.78;4831708;29;20214;-81
2022/09/07 02:54:31;;;;;;;0.10;0.10;;;18.00;99.90;;;17.96;100.00;100618.50;4847939;29;20705;-83
2022/09/07 02:57:49;;;;;;;0.10;0.10;;;17.90;99.90;;;17.98;100.00;100623.81;4846439;29;20217;-85
2022/09/07 03:00:24;;;;;;;0.10;0.10;;;18.00;99.90;;;17.92;100.00;100625.69;4823855;29;20209;-84
2022/09/07 03:03:11;;;;;;;0.00;0.00;;;;;;;17.90;100.00;100640.88;4824303;29;20225;-81
2022/09/07 03:05:48;;;;;;;0.00;0.00;;;17.90;99.90;;;17.89;100.00;100647.16;4840620;29;20217;-81
2022/09/07 03:08:30;;;;;;;0.10;0.10;;;17.50;99.90;;;17.84;100.00;100632.97;4827683;29;20222;-86
2022/09/07 03:10:59;;;;;;;0.00;0.00;;;;;;;17.89;100.00;100644.47;4831104;29;20222;-85
2022/09/07 03:13:28;;;;;;;0.10;0.10;;;17.90;99.90;;;17.89;100.00;100649.81;4831486;29;20237;-81
2022/09/07 03:15:57;;;;;;;0.00;0.00;;;;;;;17.75;100.00;100645.63;4819837;29;20238;-82
2022/09/07 03:18:27;;;;;;;0.10;0.10;;;17.80;99.90;;;17.81;100.00;100659.78;4814994;29;20202;-83
2022/09/07 03:20:56;;;;;;;0.00;0.00;;;;;;;17.78;100.00;100666.97;4827648;29;20215;-83
2022/09/07 03:23:24;;;;;;;0.00;0.00;;;;;;;17.75;100.00;100662.56;4822937;29;20233;-81
2022/09/07 03:25:53;;;;;;;0.10;0.10;;;;;;;17.71;100.00;100657.28;4838321;29;20257;-81
2022/09/07 03:28:21;;;;;;;0.10;0.10;;;17.70;99.90;;;17.66;100.00;100670.72;4834464;29;20205;-80
2022/09/07 03:30:49;;;;;;;0.10;0.10;;;17.70;99.90;;;17.65;100.00;100670.72;4832389;29;20220;-81
2022/09/07 03:33:17;;;;;;;0.03;0.03;;;17.70;99.90;;;17.67;100.00;100685.88;4843122;29;20225;-81
2022/09/07 03:35:56;;;;;;;0.00;0.00;;;17.70;99.90;;;17.69;100.00;100685.84;4840695;29;20230;-83
2022/09/07 03:38:24;;;;;;;0.03;0.03;;;17.70;99.90;;;17.68;100.00;100674.25;4841027;29;20212;-84
2022/09/07 03:41:04;;;;;;;0.10;0.10;;;17.70;99.90;;;17.78;100.00;100666.97;4829840;29;20209;-83
2022/09/07 03:43:33;;;;;;;0.10;0.10;;;17.80;99.90;;;17.76;100.00;100658.09;4839070;29;20249;-84
2022/09/07 03:46:05;;;;;;;0.00;0.00;;;17.80;99.90;;;17.73;100.00;100647.44;4836691;29;20676;-80
2022/09/07 03:48:35;;;;;;;0.00;0.00;;;17.70;99.90;;;17.71;100.00;100641.22;4838992;29;20222;-81
2022/09/07 03:51:07;;;;;;;0.00;0.00;;;17.70;99.90;;;17.71;100.00;100657.28;4835056;29;20210;-82
2022/09/07 03:53:41;;;;;;;0.00;0.00;;;17.70;99.90;;;17.69;100.00;100665.34;4838121;29;20236;-80
2022/09/07 03:56:19;;;;;;;0.10;0.10;;;17.70;99.90;;;17.71;100.00;100663.50;4815344;29;20235;-80
2022/09/07 03:58:50;;;;;;;0.00;0.00;;;17.70;99.90;;;17.70;100.00;100655.53;4838950;29;20225;-80
2022/09/07 04:01:22;;;;;;;0.10;0.10;;;17.60;99.90;;;17.69;100.00;100653.75;4841064;29;20216;-83
2022/09/07 04:03:51;;;;;;;0.10;0.10;;;17.60;99.90;;;17.71;100.00;100651.94;4841908;29;20222;-81
2022/09/07 04:06:19;;;;;;;0.10;0.10;;;17.50;99.90;;;17.70;100.00;100655.53;4845930;29;20211;-81
2022/09/07 04:08:47;;;;;;;0.10;0.10;;;17.60;99.90;;;17.65;100.00;100652.88;4846417;29;20205;-83
2022/09/07 04:11:20;;;;;;;0.10;0.10;;;17.60;99.90;;;17.64;100.00;100652.91;4804038;29;20225;-80
2022/09/07 04:13:48;;;;;;;0.10;0.10;;;;;;;17.62;100.00;100652.94;4841243;29;20216;-81
2022/09/07 04:16:23;;;;;;;0.10;0.10;;;17.50;99.90;;;17.55;100.00;100649.47;4840142;29;20248;-82
2022/09/07 04:18:55;;;;;;;0.00;0.00;;;;;;;17.56;100.00;100653.03;4849431;29;20213;-85
2022/09/07 04:21:26;;;;;;;0.00;0.00;;;17.50;99.90;;;17.50;100.00;100658.47;4840135;29;20206;-81
2022/09/07 04:23:54;;;;;;;0.00;0.00;;;;;;;17.46;100.00;100656.75;4852031;29;20611;-84
2022/09/07 04:26:26;;;;;;;0.08;0.08;;;17.30;99.90;;;17.44;100.00;100656.78;4838214;29;20217;-81
2022/09/07 04:28:54;;;;;;;0.10;0.10;;;17.40;99.90;;;17.42;100.00;100649.69;4845390;29;20225;-81
2022/09/07 04:31:23;;;;;;;0.10;0.10;;;17.40;99.90;;;17.40;100.00;100646.16;4829153;29;20214;-83
2022/09/07 04:33:52;;;;;;;0.00;0.00;;;17.40;99.90;;;17.36;100.00;100648.00;4837736;29;20213;-81
2022/09/07 04:36:21;;;;;;;0.10;0.10;;;17.30;99.90;;;17.38;100.00;100643.50;4824133;29;20240;-83
2022/09/07 04:38:55;;;;;;;0.10;0.10;;;17.30;99.90;;;17.39;100.00;100650.63;4846846;29;20220;-81
2022/09/07 04:41:23;;;;;;;0.17;0.17;;;17.30;99.90;;;17.39;100.00;100642.59;4850075;29;20216;-81
2022/09/07 04:43:58;;;;;;;0.10;0.10;;;17.30;99.90;;;17.34;100.00;100636.44;4845244;29;20221;-81
2022/09/07 04:46:36;;;;;;;0.68;0.68;;;17.30;99.90;;;17.40;100.00;100630.13;4831242;29;20209;-81
2022/09/07 04:49:09;;;;;;;0.10;0.10;;;17.30;99.90;;;17.42;100.00;100630.97;4831482;29;20223;-86
2022/09/07 04:51:38;;;;;;;0.10;0.10;;;17.30;99.90;;;17.42;100.00;100631.88;4831573;29;20225;-81
2022/09/07 04:54:08;;;;;;;0.10;0.10;;;17.40;99.90;;;17.39;100.00;100631.03;4840249;29;20210;-81
2022/09/07 04:56:37;;;;;;;0.10;0.10;;;17.30;99.90;;;17.36;100.00;100639.97;4839833;29;20234;-85
2022/09/07 04:59:05;;;;;;;0.10;0.10;;;17.30;99.90;;;17.34;100.00;100633.78;4842205;29;20210;-81
2022/09/07 05:01:33;;;;;;;0.00;0.00;;;17.30;99.90;;;17.32;100.00;100632.91;4842504;29;20221;-81
2022/09/07 05:04:03;;;;;;;0.10;0.10;;;17.30;99.90;;;17.38;100.00;100634.59;4846685;29;20219;-81
2022/09/07 05:06:31;;;;;;;0.20;0.20;;;17.30;99.90;;;17.36;100.00;100628.41;4837979;29;20617;-82
2022/09/07 05:09:00;;;;;;;0.00;0.00;;;17.30;99.90;;;17.36;100.00;100629.28;4847704;29;20212;-82
2022/09/07 05:11:28;;;;;;;0.00;0.00;;;17.30;99.90;;;17.37;100.00;100624.81;4845408;29;20210;-83
2022/09/07 05:14:02;;;;;;;0.10;0.10;;;17.30;99.90;;;17.33;100.00;100623.09;4832829;29;20222;-85
2022/09/07 05:16:30;;;;;;;0.10;0.10;;;17.20;99.90;;;17.31;100.00;100624.91;4833453;29;20237;-83
2022/09/07 05:19:02;;;;;;;0.00;0.00;;;17.30;99.90;;;17.31;100.00;100631.16;4838294;29;20217;-81
2022/09/07 05:21:33;;;;;;;0.10;0.10;;;17.30;99.90;;;17.33;100.00;100633.81;4845033;29;20214;-79
2022/09/07 05:24:03;;;;;;;0.00;0.00;;;17.30;99.90;;;17.30;100.00;100637.41;4847622;29;20205;-79
2022/09/07 05:26:34;;;;;;;0.10;0.10;;;17.30;99.90;;;17.22;100.00;100653.56;4861238;29;20220;-79
2022/09/07 05:29:04;;;;;;;0.10;0.10;;;17.20;99.90;;;17.24;100.00;100656.19;4839938;29;20210;-80
2022/09/07 05:31:53;;;;;;;0.00;0.00;;;17.20;99.90;;;17.24;100.00;100669.56;4856491;29;20241;-79
2022/09/07 05:34:22;;;;;;;0.10;0.10;;;12.70;99.90;;;17.27;100.00;100680.22;4821547;29;20253;-80
2022/09/07 05:36:58;;;;;;;0.10;0.10;;;17.20;99.90;;;17.25;100.00;100684.69;4831910;29;20236;-80
2022/09/07 05:39:27;;;;;;;0.00;0.00;;;17.20;99.90;;;17.33;100.00;100698.84;4843242;29;20225;-80
2022/09/07 05:41:55;;;;;;;0.10;0.10;;;17.20;99.90;;;17.33;100.00;100698.84;4848550;29;20221;-80
2022/09/07 05:44:24;;;;;;;0.10;0.10;;;17.30;99.90;;;17.36;100.00;100708.59;4834641;29;20209;-80
2022/09/07 05:47:12;;;;;;;0.03;0.03;;;17.30;99.90;;;17.36;100.00;100703.25;4841856;29;20222;-81
2022/09/07 05:49:40;;;;;;;0.00;0.00;;;17.30;99.90;;;17.33;100.00;100708.66;4851129;29;20210;-81
2022/09/07 05:52:08;;;;;;;0.00;0.00;;;17.20;99.90;;;17.38;100.00;100712.13;4849479;29;20264;-80
2022/09/07 05:54:36;;;;;;;1.13;1.13;;;17.30;99.90;;;17.39;100.00;100708.56;4849755;29;20690;-81
2022/09/07 05:57:04;;;;;;;0.10;0.10;;;17.30;99.90;;;17.40;100.00;100710.31;4828438;29;20226;-80
2022/09/07 05:59:33;;;;;;;0.10;0.10;;;17.30;99.90;;;17.41;100.00;100710.31;4841342;29;20220;-80
2022/09/07 06:02:01;;;;;;;0.10;0.10;;;17.30;99.90;;;17.45;100.00;100705.78;4842492;29;20621;-80
2022/09/07 06:04:29;;;;;;;0.00;0.00;;;17.30;99.90;;;17.42;100.00;100709.41;4844348;29;20221;-80
2022/09/07 06:06:58;;;;;;;0.10;0.10;;;;;;;17.46;100.00;100710.25;4844121;29;20213;-80
2022/09/07 06:09:45;;;;;;;0.00;0.00;;;17.40;99.90;;;17.45;100.00;100716.50;4838666;29;20214;-80
2022/09/07 06:12:34;;;;;;;0.10;0.10;;;17.40;99.90;;;17.49;100.00;100719.09;4841463;29;20239;-80
2022/09/07 06:15:04;;;;;;;0.00;0.00;;;17.40;99.90;;;17.53;100.00;100717.25;4849801;29;20217;-79
2022/09/07 06:17:33;;;;;;;0.10;0.10;;;17.40;99.90;;;17.58;100.00;100716.28;4841300;29;20245;-79
2022/09/07 06:20:03;;;;;;;0.10;0.10;;;18.30;99.90;;;17.67;100.00;100712.63;4846872;29;20205;-80
2022/09/07 06:22:35;;;;;;;0.10;0.10;;;;;;;17.79;100.00;100720.44;4837905;29;20594;-80
2022/09/07 06:25:04;;;;;;;0.10;0.10;;;17.60;99.90;;;17.84;100.00;100715.91;4848533;29;20214;-80
2022/09/07 06:27:33;;;;;;;0.47;0.47;;;17.80;99.90;;;17.98;100.00;100726.38;4838545;29;20218;-80
2022/09/07 06:30:01;;;;;;;0.10;0.10;;;17.90;99.90;;;18.17;100.00;100732.31;4851956;29;20213;-80
2022/09/07 06:32:29;;;;;;;0.10;0.10;;;18.00;99.90;;;18.27;100.00;100741.09;4841731;29;20246;-81
2022/09/07 06:35:14;;;;;;;0.05;0.05;;;18.00;99.90;;;18.28;100.00;100741.06;4840562;29;20206;-83
2022/09/07 06:37:43;;;;;;;0.10;0.10;;;18.10;99.90;;;18.27;100.00;100739.31;4848612;29;20240;-81
2022/09/07 06:40:11;;;;;;;0.10;0.10;;;18.10;99.90;;;18.36;100.00;100743.59;4856967;29;20205;-80
2022/09/07 06:42:39;;;;;;;0.10;0.10;;;18.10;99.90;;;18.44;100.00;100741.66;4842125;29;20230;-82
2022/09/07 06:45:10;;;;;;;0.20;0.20;;;;;;;18.57;100.00;100740.53;4832020;29;20221;-81
2022/09/07 06:47:39;;;;;;;0.00;0.00;;;18.30;99.90;;;18.63;100.00;100745.81;4849633;29;20213;-81
2022/09/07 06:50:08;;;;;;;0.00;0.00;;;18.50;99.90;;;18.69;100.00;100739.44;4848121;29;20217;-81
2022/09/07 06:52:36;;;;;;;0.10;0.10;;;18.50;99.90;;;18.72;100.00;100742.06;4853078;29;20225;-81
2022/09/07 06:55:26;;;;;;;0.43;0.43;;;18.60;99.90;;;18.85;100.00;100732.88;4835044;29;20220;-81
2022/09/07 06:57:54;;;;;;;0.10;0.10;;;18.60;99.90;;;18.90;100.00;100730.09;4849018;29;20234;-81
2022/09/07 07:00:22;;;;;;;0.10;0.10;;;18.70;99.90;;;18.93;100.00;100720.19;4839294;29;20225;-81
2022/09/07 07:02:51;;;;;;;0.10;0.10;;;18.70;99.90;;;19.02;100.00;100711.97;4843462;29;20230;-81
2022/09/07 07:05:19;;;;;;;0.00;0.00;;;18.90;99.90;;;19.10;100.00;100707.31;4828839;29;20214;-81
2022/09/07 07:07:47;;;;;;;0.10;0.10;;;18.90;99.90;;;19.17;100.00;100697.34;4820443;29;20229;-81
2022/09/07 07:10:15;;;;;;;0.00;0.00;;;18.90;99.90;;;19.30;100.00;100700.63;4818529;29;20221;-81
2022/09/07 07:12:49;;;;;;;0.10;0.10;;;19.10;99.90;;;19.50;100.00;100703.75;4842986;29;20245;-79
2022/09/07 07:15:17;;;;;;;0.10;0.10;;;19.30;99.90;;;19.63;100.00;100697.25;4839400;29;20213;-79
2022/09/07 07:17:45;;;;;;;0.10;0.10;;;19.50;99.90;;;19.69;100.00;100690.84;4844859;29;20242;-79
2022/09/07 07:20:22;;;;;;;0.08;0.08;;;19.50;99.90;;;19.76;100.00;100690.66;4840389;29;20205;-79
2022/09/07 07:22:51;;;;;;;0.00;0.00;;;19.70;99.90;;;19.87;100.00;100693.06;4843004;29;20230;-81
2022/09/07 07:25:19;;;;;;;0.10;0.10;;;19.70;99.90;;;19.91;100.00;100691.19;4835645;29;20206;-82
2022/09/07 07:27:48;;;;;;;0.00;0.00;;;19.70;99.90;;;20.06;100.00;100698.84;4831064;29;20222;-79
2022/09/07 07:30:18;;;;;;;0.00;0.00;;;19.70;99.90;;;20.26;100.00;100703.72;4840982;29;20305;-80
2022/09/07 07:32:49;;;;;;;0.00;0.00;;;20.30;99.90;;;20.44;100.00;100698.75;4841739;29;20241;-79
2022/09/07 07:35:17;;;;;;;0.00;0.00;;;20.00;99.90;;;20.60;100.00;100687.59;4840601;29;20217;-80
2022/09/07 07:37:46;;;;;;;0.00;0.00;;;20.30;99.90;;;20.86;100.00;100678.81;4819571;29;20250;-79
2022/09/07 07:40:15;;;;;;;0.00;0.00;;;20.30;99.90;;;21.00;100.00;100663.13;4828593;29;20210;-80
2022/09/07 07:42:47;;;;;;;0.00;0.00;;;20.50;99.90;;;21.27;100.00;100661.44;4832575;29;20248;-80
2022/09/07 07:45:15;;;;;;;0.00;0.00;;;20.60;99.90;;;21.36;100.00;100653.09;4844707;29;20218;-80
2022/09/07 07:48:03;;;;;;;0.00;0.00;;;20.80;99.90;;;21.30;100.00;100637.13;4832930;29;20297;-80
2022/09/07 07:50:31;;;;;;;0.00;0.00;;;21.00;99.90;;;21.36;100.00;100642.31;4838155;29;20225;-80
2022/09/07 07:53:01;;;;;;;0.00;0.00;;;21.00;99.90;;;21.31;100.00;100655.91;4836793;29;20241;-80
2022/09/07 07:55:49;;;;;;;0.00;0.00;;;21.00;99.90;;;21.29;100.00;100644.34;4840249;29;20225;-80
2022/09/07 07:58:18;;;;;;;0.00;0.00;;;;;;;21.40;100.00;100642.19;4852379;29;20225;-79
2022/09/07 08:00:47;;;;;;;0.60;0.60;;;20.90;99.90;;;21.61;100.00;100648.66;4835686;29;20643;-79
2022/09/07 08:03:23;;;;;;;4.20;2.25;;;21.30;99.90;;;21.72;100.00;100664.47;4813754;29;20237;-79
2022/09/07 08:05:53;;;;;;;591.58;543.10;;;21.30;99.90;;;21.66;100.00;100660.16;4845889;29;20213;-79
2022/09/07 08:08:22;;;;;;;59.30;17.80;;;21.30;99.90;;;21.66;100.00;100668.25;4845710;29;20206;-80
2022/09/07 08:10:51;;;;;;;32.13;6.78;;;21.40;99.90;;;21.74;100.00;100684.13;4842474;29;20230;-79
2022/09/07 08:13:20;;;;;;;744.33;704.65;;;21.40;99.90;;;21.99;100.00;100697.66;4848447;29;20236;-79
2022/09/07 08:15:48;;;;;;;4.13;2.10;;;21.60;99.90;;;22.19;100.00;100686.28;4847994;29;20227;-79
2022/09/07 08:18:17;;;;;;;5.10;2.30;;;21.70;99.90;;;22.43;100.00;100674.63;4833432;29;20238;-79
2022/09/07 08:20:45;;;;;;;5.43;2.35;;;21.90;99.90;;;22.27;100.00;100652.72;4845165;29;20205;-79
2022/09/07 08:23:13;;;;;;;6.28;2.50;;;22.00;99.90;;;22.32;100.00;100652.56;4838665;29;20229;-79
2022/09/07 08:25:53;;;;;;;5.47;2.33;;;22.00;99.90;;;22.43;100.00;100650.38;4840986;29;20213;-79
2022/09/07 08:28:22;;;;;;;7.90;3.00;;;22.10;99.90;;;22.32;100.00;100639.97;4827338;29;20569;-78
2022/09/07 08:30:50;;;;;;;8.00;3.10;;;22.10;99.90;;;22.72;100.00;100668.16;4845532;29;20217;-79
2022/09/07 08:33:18;;;;;;;3.22;1.80;;;22.20;99.90;;;22.99;100.00;100664.47;4842110;29;20225;-79
2022/09/07 08:36:01;;;;;;;4.13;2.15;;;22.40;99.90;;;23.35;100.00;100677.44;4813176;29;20217;-80
2022/09/07 08:38:31;;;;;;;4.32;2.17;;;22.70;99.90;;;23.18;100.00;100644.84;4836568;29;20232;-79
2022/09/07 08:41:00;;;;;;;4.50;2.20;;;;;;;23.25;100.00;100644.53;4815253;29;20206;-79
2022/09/07 08:43:31;;;;;;;7.05;2.55;;;;;;;23.22;100.00;100641.09;4827201;29;20312;-78
2022/09/07 08:46:26;;;;;;;5.72;2.25;;;22.90;99.90;;;22.88;100.00;100619.97;4853345;29;20205;-78
2022/09/07 08:48:57;;;;;;;6.38;2.55;;;23.00;99.90;;;23.16;100.00;100636.81;4802887;29;20213;-79
2022/09/07 08:51:40;;;;;;;9.75;3.40;;;23.20;99.90;;;23.58;100.00;100655.88;4814875;29;20212;-79
2022/09/07 08:54:13;;;;;;;5.90;2.50;;;23.30;99.90;;;23.93;100.00;100664.31;4824538;29;20218;-79
2022/09/07 08:56:46;;;;;;;5.85;2.45;;;23.50;99.90;;;24.06;100.00;100641.22;4847430;29;20205;-79
2022/09/07 08:59:46;;;;;;;6.03;2.53;;;23.60;99.90;;;24.12;100.00;100603.13;4832516;29;20236;-78
2022/09/07 09:02:16;;;;;;;6.43;2.50;;;23.90;99.90;;;24.16;100.00;100607.47;4818417;29;20245;-79
2022/09/07 09:05:34;;;;;;;8.55;2.85;;;24.00;99.90;;;24.29;100.00;100588.91;4839741;29;20234;-79
2022/09/07 09:08:11;;;;;;;5.68;2.20;;;24.00;99.90;;;24.55;100.00;100594.00;4827008;29;20216;-79
2022/09/07 09:11:04;;;;;;;11.50;3.60;;;24.20;99.90;;;24.57;100.00;100588.53;4836071;29;20210;-79
2022/09/07 09:14:07;;;;;;;10.95;3.30;;;24.40;99.90;;;24.79;100.00;100588.44;4835925;29;20240;-79
2022/09/07 09:17:07;;;;;;;11.13;3.28;;;24.50;99.90;;;25.12;100.00;100619.31;4814203;29;20227;-79
2022/09/07 09:20:04;;;;;;;10.60;3.05;;;24.90;99.90;;;25.06;100.00;100586.25;4825095;29;20220;-78
2022/09/07 09:22:34;;;;;;;22.70;5.13;;;24.90;99.90;;;24.98;100.00;100559.56;4811638;29;20224;-79
2022/09/07 09:25:20;;;;;;;29.90;6.25;;;25.00;99.90;;;25.09;100.00;100554.53;4857414;23;20210;31
2022/09/07 09:27:49;;;;;;;596.28;561.80;;;;;;;25.56;100.00;100572.94;4885268;29;20223;-85
2022/09/07 09:30:20;;;;;;;10.68;3.40;;;25.20;99.90;;;25.26;100.00;100523.03;4872922;29;20238;-86
2022/09/07 09:32:52;;;;;;;2.60;1.35;;;25.40;99.90;;;25.55;100.00;100544.09;4876318;29;20227;-86
2022/09/07 09:35:23;;;;;;;1002.65;941.83;;;;;;;25.65;100.00;100521.03;4881594;29;20219;-85
2022/09/07 09:37:51;;;;;;;1015.05;953.00;;;;;;;26.00;100.00;100542.69;4885174;29;20230;-85
2022/09/07 09:40:24;;;;;;;1019.20;956.75;;;25.80;99.90;;;25.85;100.00;100476.63;4894756;29;20656;-84
2022/09/07 09:43:16;;;;;;;1026.03;963.13;;;25.70;99.90;;;25.78;100.00;100434.56;4882962;29;20255;-83
2022/09/07 09:45:50;;;;;;;1013.30;951.38;;;25.90;99.90;;;26.19;100.00;100502.81;4869524;29;20209;-84
2022/09/07 09:48:40;;;;;;;1029.22;966.65;;;26.20;99.90;;;26.04;100.00;100406.97;4869036;29;20231;-84
2022/09/07 09:51:15;;;;;;;969.47;910.97;;;26.20;99.90;;;26.39;100.00;100448.41;4877985;29;20220;-84
2022/09/07 09:54:35;;;;;;;17.00;4.13;;;26.50;99.90;;;26.22;100.00;100396.94;4862702;29;20223;-83
2022/09/07 09:57:03;;;;;;;1042.97;978.88;;;26.40;99.90;;;26.10;100.00;100384.06;4883140;29;20223;-82
2022/09/07 09:59:34;;;;;;;960.50;901.67;;;26.40;99.90;;;26.12;100.00;100391.16;4877600;29;20243;-82
2022/09/07 10:02:33;;;;;;;620.92;577.95;;;26.40;99.90;;;26.46;100.00;100403.72;4881220;29;20239;-85
2022/09/07 10:05:36;;;;;;;995.03;933.92;;;26.70;99.90;;;26.85;99.22;100385.19;4874283;29;20236;-85
2022/09/07 10:08:53;;;;;;;948.78;889.00;;;27.00;99.90;;;26.64;97.21;100319.53;4869959;29;20215;-85
2022/09/07 10:11:50;;;;;;;452.30;410.60;;;26.80;99.90;;;26.44;98.63;100310.72;4877187;29;20215;-83
2022/09/07 10:14:43;;;;;;;680.25;635.78;;;26.80;99.90;;;26.60;96.05;100301.69;4857914;29;20209;-85
2022/09/07 10:17:29;;;;;;;934.38;877.40;;;26.80;99.90;;;26.90;99.34;100339.66;4861861;29;20231;-88
2022/09/07 10:20:16;;;;;;;948.88;890.65;;;27.00;99.90;;;27.59;100.00;100404.28;4886642;29;20601;-87
2022/09/07 10:23:05;;;;;;;714.17;666.05;;;27.50;99.90;;;27.67;94.87;100313.22;4889052;29;20259;-87
2022/09/07 10:25:38;;;;;;;1078.72;999.90;;;28.30;99.90;;;26.95;91.05;100219.03;4879305;29;20220;-86
2022/09/07 10:28:12;;;;;;;991.25;929.17;;;27.70;99.90;;;27.32;93.87;100260.22;4862596;29;20208;-86
2022/09/07 10:31:11;;;;;;;1075.22;999.90;;;28.10;99.90;;;27.54;92.51;100262.44;4874758;29;20211;-87
2022/09/07 10:34:39;;;;;;;1147.10;999.90;;;28.30;99.90;;;27.25;92.36;100212.66;4880972;29;20226;-86
2022/09/07 10:37:10;;;;;;;1148.53;999.90;;;28.80;99.90;;;27.50;88.93;100209.28;4832195;29;20769;-86
2022/09/07 10:40:09;;;;;;;879.35;824.67;;;29.10;99.90;;;28.23;91.95;100291.50;4869479;29;20232;-86
2022/09/07 10:43:21;;;;;;;1127.47;999.90;;;29.10;99.90;;;28.08;92.21;100241.69;4880721;29;20699;-88
2022/09/07 10:45:58;;;;;;;970.05;914.72;;;29.50;99.90;;;27.66;88.82;100164.75;4884006;29;20224;-85
2022/09/07 10:49:03;;;;;;;1197.60;999.90;;;28.90;99.90;;;27.85;90.44;100207.88;4866857;29;20216;-86
2022/09/07 10:52:24;;;;;;;1145.47;999.90;;;28.60;99.90;;;26.68;88.51;100049.84;4876491;29;20204;-86